Portada
METAR-TAF:

METAR-TAF

Aeropuertos :

Lanzarote, España

Aeropuerto de Lanzarote

latitud: 28-57N, longitud: 013-36W, altitud: 14 m

Observación

El informe se hizo hace 31 minutos, a las 06:00 UTC
Viento 10 kt del norte
Temperatura 25°C
Humedad 61%
Presión 1016 hPa
Visibilidad 10 km o más
Escasas nubes a una altura de 2500 ft

METAR: GCRR 240600Z 35010KT 9999 FEW025 25/17 Q1016

Hora: 07:31 (06:31 UTC)

Pronóstico

El informe se hizo hace 4 horas y 31 minutos, a las 02:00 UTC
Pronóstico válido del 24 a las 03 UTC al 25 a las 03 UTC
Viento 14 kt del norte
Visibilidad 10 km o más
Escasas nubes a una altura de 1500 ft
Temporalmente
del 24 a las 10 UTC al 24 a las 18 UTC
Viento 12 kt del este

TAF: GCRR 240200Z 2403/2503 01014KT 9999 FEW015 TX33/2415Z TN23/2405Z TEMPO 2410/2418 09012KT

Observaciones y pronósticos meteorológicos de más de 4000 aeropuertos (mensajes METAR y TAF).

Los puntos amarillos y rojos representan las estaciones disponibles.

Ponga el ratón en el punto deseado para ver el nombre de la estación.

Haga clic para ver las observaciones y los pronósticos meteorológicos.

Para cambiar el mapa : haga clic en los botones verdes con una cruz de color negro para hacer un zoom, en el botón verde con un guión para alejar o en las flechas verdes para mapas adyacentes.


METAR-TAF: